Time;durP1;ratioP1;P1;durP2;ratioP2;P2;SDS_P1;SDS_P2;PMS_P1;PMS_P2;Temp;Humidity;BMP_temperature;BMP_pressure;BME280_temperature;BME280_humidity;BME280_pressure;Samples;Min_cycle;Max_cycle;Signal;HPM_P1;HPM_P2
2023/01/23 00:01:15;;;;;;;8.37;7.57;;;;;;;5.33;58.35;99098.41;8379661;28;20238;-66
2023/01/23 00:05:19;;;;;;;9.23;8.43;;;;;;;5.95;56.90;99140.03;8377792;28;20425;-66
2023/01/23 00:09:23;;;;;;;8.00;7.20;;;;;;;5.68;58.30;99143.59;8379387;28;20229;-67
2023/01/23 00:13:26;;;;;;;7.93;7.23;;;;;;;5.62;57.88;99148.78;8379260;28;20240;-67
2023/01/23 00:17:29;;;;;;;8.93;8.03;;;;;;;5.29;58.72;99137.78;8379433;28;20236;-66
2023/01/23 00:21:32;;;;;;;9.47;8.27;;;;;;;5.28;58.26;99136.09;8379296;28;20228;-67
2023/01/23 00:25:36;;;;;;;8.20;7.40;;;;;;;5.41;58.35;99144.59;8378983;28;20325;-67
2023/01/23 00:29:39;;;;;;;8.83;8.03;;;;;;;5.50;58.26;99152.25;8378378;28;20233;-67
2023/01/23 00:33:43;;;;;;;8.50;7.60;;;;;;;5.18;58.58;99113.84;8377827;28;20248;-67
2023/01/23 00:37:45;;;;;;;9.00;8.10;;;;;;;5.31;58.55;99125.78;8378243;28;20593;-67
2023/01/23 00:41:50;;;;;;;8.93;7.97;;;;;;;5.33;58.51;99142.06;8378173;28;20232;-67
2023/01/23 00:45:52;;;;;;;8.77;7.83;;;;;;;5.43;58.70;99146.31;8377785;28;20230;-67
2023/01/23 00:49:56;;;;;;;8.37;7.57;;;;;;;5.39;58.49;99146.34;8377591;28;20244;-66
2023/01/23 00:53:59;;;;;;;9.30;8.30;;;;;;;5.31;58.59;99150.63;8377249;28;20249;-67
2023/01/23 00:58:03;;;;;;;8.50;7.60;;;;;;;5.44;58.34;99152.28;8377453;28;20550;-67
2023/01/23 01:02:06;;;;;;;9.43;7.67;;;;;;;5.38;58.40;99152.31;8377303;28;20227;-67
2023/01/23 01:06:09;;;;;;;8.63;7.73;;;;;;;5.45;58.27;99179.69;8377408;28;20438;-66
2023/01/23 01:10:12;;;;;;;8.50;7.70;;;;;;;5.23;58.50;99130.13;8377410;28;20229;-67
2023/01/23 01:14:17;;;;;;;8.43;7.63;;;;;;;5.43;58.50;99178.84;8377179;28;20293;-67
2023/01/23 01:18:20;;;;;;;7.73;6.93;;;;;;;5.48;58.36;99177.09;8377040;28;20248;-67
2023/01/23 01:22:23;;;;;;;8.23;7.40;;;;;;;5.49;58.53;99174.53;8376724;28;20232;-67
2023/01/23 01:26:26;;;;;;;8.30;7.50;;;;;;;5.57;58.27;99179.63;8376561;28;20232;-67
2023/01/23 01:30:30;;;;;;;8.70;7.80;;;;;;;5.41;58.39;99180.56;8376481;28;20221;-67
2023/01/23 01:34:33;;;;;;;9.60;8.63;;;;;;;4.55;58.88;99067.88;8376397;28;20233;-67
2023/01/23 01:38:36;;;;;;;9.40;8.20;;;;;;;5.52;58.14;99201.94;8376628;28;20230;-66
2023/01/23 01:42:39;;;;;;;9.00;7.63;;;;;;;5.46;58.24;99194.22;8376352;28;20425;-66
2023/01/23 01:46:44;;;;;;;9.07;8.17;;;;;;;5.38;58.59;99204.53;8375661;28;20255;-66
2023/01/23 01:50:48;;;;;;;9.30;8.40;;;;;;;5.27;58.88;99196.91;8375756;28;20292;-67
2023/01/23 01:54:54;;;;;;;8.97;8.07;;;;;;;5.44;58.76;99201.09;8376049;28;20232;-66
2023/01/23 01:58:58;;;;;;;9.07;8.00;;;;;;;5.47;58.58;99208.81;8376023;28;20532;-67
2023/01/23 02:03:03;;;;;;;9.50;8.20;;;;;;;5.33;58.70;99207.97;8375633;28;20424;-67
2023/01/23 02:07:11;;;;;;;8.73;7.83;;;;;;;5.38;58.41;99190.84;8382614;28;20233;-67
2023/01/23 02:11:15;;;;;;;8.93;8.03;;;;;;;5.50;58.58;99203.63;8382792;28;20240;-67
2023/01/23 02:15:20;;;;;;;9.17;8.17;;;;;;;5.34;58.65;99209.72;8382756;28;20233;-67
2023/01/23 02:19:34;;;;;;;8.70;7.90;;;;;;;5.23;57.69;99210.56;8382758;28;20303;-67
2023/01/23 02:23:44;;;;;;;8.80;7.90;;;;;;;5.39;58.55;99213.13;8382376;28;20252;-66
2023/01/23 02:27:49;;;;;;;9.03;8.13;;;;;;;5.37;57.97;99214.81;8381673;28;20237;-67
2023/01/23 02:31:52;;;;;;;10.27;9.17;;;;;;;5.21;58.89;99214.03;8382694;28;20516;-67
2023/01/23 02:35:55;;;;;;;9.63;8.63;;;;;;;5.38;58.60;99217.38;8382668;28;20283;-67
2023/01/23 02:39:58;;;;;;;10.10;8.97;;;;;;;5.23;58.53;99226.00;8382896;28;20237;-66
2023/01/23 02:44:04;;;;;;;9.80;8.50;;;;;;;5.42;58.71;99229.34;8382418;28;20237;-67
2023/01/23 02:48:08;;;;;;;10.30;9.20;;;;;;;5.27;58.36;99217.44;8383146;28;20237;-67
2023/01/23 02:52:11;;;;;;;9.90;8.90;;;;;;;5.37;58.71;99212.25;8381997;28;20228;-67
2023/01/23 02:56:14;;;;;;;9.63;8.63;;;;;;;4.95;59.03;99149.88;8381726;28;20245;-67
2023/01/23 03:00:20;;;;;;;10.63;8.90;;;;;;;5.45;58.88;99208.81;8381325;28;20417;-68
2023/01/23 03:04:24;;;;;;;10.40;9.30;;;;;;;4.53;58.34;99102.94;8381275;28;20236;-67
2023/01/23 03:08:32;;;;;;;10.03;9.03;;;;;;;5.31;59.16;99213.13;8381224;28;20230;-67
2023/01/23 03:12:36;;;;;;;10.30;9.20;;;;;;;5.07;59.41;99207.22;8380944;28;20252;-66
2023/01/23 03:16:41;;;;;;;10.63;9.10;;;;;;;4.96;59.69;99190.97;8381085;28;20225;-67
2023/01/23 03:20:44;;;;;;;11.13;9.33;;;;;;;5.20;59.05;99199.50;8380500;28;20227;-67
2023/01/23 03:24:47;;;;;;;9.83;8.83;;;;;;;5.19;59.33;99187.50;8380540;28;20248;-67
2023/01/23 03:33:12;;;;;;;9.73;8.83;;;;;;;5.15;59.13;99188.38;8380409;28;20485;-67
2023/01/23 03:37:16;;;;;;;10.77;9.23;;;;;;;5.21;59.05;99183.19;8380169;28;20255;-67
2023/01/23 03:41:24;;;;;;;10.40;9.13;;;;;;;5.23;59.02;99189.19;8380070;28;20348;-67
2023/01/23 03:45:26;;;;;;;11.40;9.50;;;;;;;5.26;58.61;99191.75;8379876;28;20236;-66
2023/01/23 03:49:31;;;;;;;9.50;8.43;;;;;;;5.33;58.96;99200.28;8380195;28;20244;-67
2023/01/23 03:53:34;;;;;;;10.63;9.20;;;;;;;5.39;58.55;99197.72;8379701;28;20241;-67
2023/01/23 03:57:37;;;;;;;10.30;8.87;;;;;;;5.20;58.96;99199.50;8379874;28;20263;-66
2023/01/23 04:01:40;;;;;;;10.50;9.40;;;;;;;5.41;58.96;99201.13;8379916;28;20227;-67
2023/01/23 04:05:44;;;;;;;10.73;9.33;;;;;;;5.17;59.02;99195.19;8371230;28;20244;-67
2023/01/23 04:09:47;;;;;;;10.03;8.73;;;;;;;5.33;59.07;99208.88;8379334;28;20320;-67
2023/01/23 04:13:50;;;;;;;10.77;9.10;;;;;;;5.22;58.77;99214.03;8379202;28;20233;-67
2023/01/23 04:17:53;;;;;;;11.30;9.23;;;;;;;5.18;58.63;99220.03;8379279;28;20233;-67
2023/01/23 04:21:57;;;;;;;12.80;9.43;;;;;;;5.19;58.78;99211.44;8379379;28;20232;-67
2023/01/23 04:26:00;;;;;;;11.80;9.80;;;;;;;5.19;58.60;99237.13;8378453;28;20248;-67
2023/01/23 04:30:03;;;;;;;12.63;9.97;;;;;;;5.26;57.63;99240.56;8378497;28;20421;-67
2023/01/23 04:34:06;;;;;;;11.87;9.47;;;;;;;5.41;58.17;99248.22;8378683;28;20233;-67
2023/01/23 04:38:13;;;;;;;12.27;10.97;;;;;;;4.79;58.11;99231.22;8378529;28;20428;-67
2023/01/23 04:42:15;;;;;;;11.40;9.60;;;;;;;5.36;57.75;99254.22;8378500;28;20253;-68
2023/01/23 04:46:18;;;;;;;11.40;9.87;;;;;;;5.40;57.10;99251.63;8378184;28;20413;-66
2023/01/23 04:50:21;;;;;;;12.50;10.73;;;;;;;5.41;57.76;99247.38;8378171;28;20230;-69
2023/01/23 04:54:26;;;;;;;11.93;10.27;;;;;;;5.42;57.26;99249.91;8378165;28;20240;-67
2023/01/23 04:58:29;;;;;;;13.03;10.77;;;;;;;5.07;57.47;99250.00;8377806;28;20602;-65
2023/01/23 05:02:34;;;;;;;14.33;10.67;;;;;;;4.30;59.88;99247.44;8377574;28;20427;-67
2023/01/23 05:06:38;;;;;;;14.00;10.10;;;;;;;5.06;57.74;99248.28;8377852;28;20228;-67
2023/01/23 05:10:43;;;;;;;12.87;10.60;;;;;;;5.21;57.29;99229.44;8377549;28;20228;-66
2023/01/23 05:14:45;;;;;;;12.97;11.57;;;;;;;5.37;57.12;99259.38;8377090;28;20228;-67
2023/01/23 05:18:48;;;;;;;12.33;10.07;;;;;;;5.41;57.36;99257.66;8377433;28;20233;-67
2023/01/23 05:22:54;;;;;;;13.07;10.20;;;;;;;5.43;57.37;99264.47;8376728;28;20548;-67
2023/01/23 05:27:01;;;;;;;13.00;10.07;;;;;;;5.47;57.74;99268.75;8376861;28;20340;-66
2023/01/23 05:31:04;;;;;;;12.23;10.37;;;;;;;5.29;57.63;99261.06;8376875;28;20395;-67
2023/01/23 05:35:08;;;;;;;12.23;10.23;;;;;;;5.29;56.79;99248.22;8376889;28;20431;-67
2023/01/23 05:39:11;;;;;;;13.40;10.43;;;;;;;5.34;56.42;99279.91;8376349;28;20224;-67
2023/01/23 05:43:15;;;;;;;11.97;10.40;;;;;;;4.89;57.28;99277.41;8376883;28;20245;-68
2023/01/23 05:47:18;;;;;;;12.87;10.43;;;;;;;5.34;56.56;99284.22;8376991;28;20259;-68
2023/01/23 05:51:22;;;;;;;12.53;9.97;;;;;;;5.33;57.02;99288.50;8376845;28;20229;-66
2023/01/23 05:55:25;;;;;;;13.30;10.13;;;;;;;5.42;56.50;99275.59;8376192;28;20277;-67
2023/01/23 05:59:29;;;;;;;12.97;9.87;;;;;;;5.44;57.07;99299.56;8376903;28;20247;-66
2023/01/23 06:03:33;;;;;;;12.70;10.10;;;;;;;4.57;58.17;99303.06;8376929;28;20229;-67
2023/01/23 06:07:36;;;;;;;10.90;9.70;;;;;;;4.94;57.53;99307.38;8376698;28;20220;-66
2023/01/23 06:11:39;;;;;;;9.83;8.67;;;;;;;4.46;57.51;99310.75;8376495;28;20252;-66
2023/01/23 06:15:43;;;;;;;12.07;9.80;;;;;;;4.87;57.45;99309.94;8375999;28;20217;-67
2023/01/23 06:19:47;;;;;;;11.67;8.80;;;;;;;5.36;55.69;99328.72;8376409;28;20555;-67
2023/01/23 06:23:50;;;;;;;10.30;8.87;;;;;;;5.20;56.29;99315.91;8376922;28;20346;-66
2023/01/23 06:27:53;;;;;;;12.00;9.93;;;;;;;4.73;56.54;99341.59;8376101;28;20243;-67
2023/01/23 06:31:58;;;;;;;13.53;10.30;;;;;;;4.92;55.80;99343.31;8376305;28;20415;-66
2023/01/23 06:36:03;;;;;;;11.17;8.83;;;;;;;4.27;57.23;99325.22;8375907;28;20433;-65
2023/01/23 06:40:11;;;;;;;11.27;9.40;;;;;;;4.26;57.90;99361.97;8375945;28;20229;-66
2023/01/23 06:44:14;;;;;;;11.10;8.70;;;;;;;4.58;57.83;99370.63;8375908;28;20354;-66
2023/01/23 06:48:19;;;;;;;10.90;9.50;;;;;;;4.90;57.63;99375.81;8375897;28;20229;-66
2023/01/23 06:52:22;;;;;;;14.07;10.00;;;;;;;4.55;57.59;99378.31;8380723;28;20431;-66
2023/01/23 06:56:25;;;;;;;11.90;9.33;;;;;;;5.10;57.37;99380.94;8382060;28;20226;-66
2023/01/23 07:00:28;;;;;;;13.83;10.87;;;;;;;4.90;57.08;99337.31;8381919;28;20508;-66
2023/01/23 07:04:33;;;;;;;14.30;10.50;;;;;;;5.12;57.17;99389.50;8381804;28;20231;-66
2023/01/23 07:08:36;;;;;;;11.37;9.30;;;;;;;5.27;57.00;99393.78;8381617;28;20503;-66
2023/01/23 07:12:39;;;;;;;11.80;9.70;;;;;;;5.31;56.56;99381.81;8381166;28;20524;-66
2023/01/23 07:16:41;;;;;;;12.53;9.77;;;;;;;5.33;56.00;99398.06;8381206;28;20229;-67
2023/01/23 07:20:46;;;;;;;11.80;9.33;;;;;;;5.49;56.79;99397.22;8381436;28;20235;-66
2023/01/23 07:24:49;;;;;;;12.20;10.10;;;;;;;5.43;56.91;99402.38;8381132;28;20241;-66
2023/01/23 07:28:52;;;;;;;11.63;9.97;;;;;;;5.46;56.72;99400.66;8381081;28;20226;-67
2023/01/23 07:32:56;;;;;;;16.17;10.97;;;;;;;5.45;56.84;99405.81;8378451;28;20243;-66
2023/01/23 07:37:01;;;;;;;12.30;9.57;;;;;;;5.50;56.59;99404.06;8380591;28;20239;-67
2023/01/23 07:41:04;;;;;;;13.57;10.70;;;;;;;5.55;56.70;99402.34;8381001;28;20229;-66
2023/01/23 07:45:08;;;;;;;12.97;10.40;;;;;;;5.55;56.88;99404.06;8380696;28;20524;-68
2023/01/23 07:49:11;;;;;;;12.60;10.40;;;;;;;5.49;56.83;99398.06;8380371;28;20551;-67
2023/01/23 07:53:15;;;;;;;13.23;10.43;;;;;;;5.58;56.97;99407.50;8380371;28;20252;-67
2023/01/23 07:57:18;;;;;;;11.53;9.53;;;;;;;5.68;56.50;99413.47;8380206;28;20221;-67
2023/01/23 08:01:21;;;;;;;11.47;10.10;;;;;;;5.51;55.97;99415.22;8379604;28;20552;-66
2023/01/23 08:05:24;;;;;;;12.87;10.33;;;;;;;5.42;57.13;99418.63;8379841;28;20221;-67
2023/01/23 08:09:28;;;;;;;12.27;10.33;;;;;;;5.46;56.83;99420.34;8376873;28;20387;-67
2023/01/23 08:13:32;;;;;;;15.70;11.60;;;;;;;5.16;56.79;99360.44;8379853;28;20422;-67
2023/01/23 08:17:34;;;;;;;12.90;10.77;;;;;;;5.45;56.81;99409.22;8379943;28;20230;-68
2023/01/23 08:21:37;;;;;;;12.17;10.27;;;;;;;5.45;57.55;99413.50;8379484;28;20320;-67
2023/01/23 08:25:41;;;;;;;13.57;10.30;;;;;;;5.50;57.58;99406.63;8379173;28;20229;-67
2023/01/23 08:29:44;;;;;;;12.77;9.90;;;;;;;5.35;57.74;99401.50;8370675;28;20240;-67
2023/01/23 08:33:47;;;;;;;12.00;10.27;;;;;;;5.29;57.60;99392.09;8379210;28;20241;-67
2023/01/23 08:37:50;;;;;;;13.47;10.60;;;;;;;5.53;57.66;99409.22;8379018;28;20251;-67
2023/01/23 08:41:54;;;;;;;12.57;10.47;;;;;;;5.48;57.44;99405.78;8379185;28;20228;-67
2023/01/23 08:45:58;;;;;;;11.80;10.17;;;;;;;5.34;57.64;99380.09;8378827;28;20256;-67
2023/01/23 08:50:02;;;;;;;10.37;8.87;;;;;;;6.77;72.64;99414.84;8378797;28;20528;-67
2023/01/23 08:54:04;;;;;;;10.70;8.63;;;;;;;9.30;65.66;99406.06;8378255;28;20502;-68
2023/01/23 08:58:11;;;;;;;11.70;9.20;;;;;;;9.80;54.96;99411.25;8378013;28;20235;-68
2023/01/23 09:02:14;;;;;;;11.13;9.90;;;;;;;7.78;53.06;99419.19;8378212;28;20422;-68
2023/01/23 09:06:20;;;;;;;12.80;10.97;;;;;;;7.05;54.76;99403.47;8378177;28;20559;-68
2023/01/23 09:10:23;;;;;;;11.23;9.70;;;;;;;7.02;54.46;99406.06;8378199;28;20225;-67
2023/01/23 09:14:27;;;;;;;14.43;10.40;;;;;;;6.95;54.92;99411.28;8377403;28;20308;-68
2023/01/23 09:18:30;;;;;;;11.67;10.47;;;;;;;6.21;55.81;99399.66;8377588;28;20229;-68
2023/01/23 09:22:33;;;;;;;11.90;9.97;;;;;;;6.02;56.15;99411.72;8377331;28;20228;-68
2023/01/23 09:26:36;;;;;;;11.67;9.53;;;;;;;6.37;55.70;99413.31;8377386;28;20433;-67
2023/01/23 09:30:41;;;;;;;10.93;9.30;;;;;;;6.46;55.44;99417.56;8377279;28;20270;-68
2023/01/23 09:34:43;;;;;;;11.00;9.80;;;;;;;5.97;55.44;99425.44;8368367;28;20657;-67
2023/01/23 09:38:48;;;;;;;11.80;9.80;;;;;;;6.07;55.13;99425.44;8377248;28;20225;-68
2023/01/23 09:42:52;;;;;;;9.70;8.70;;;;;;;6.41;55.81;99409.84;8376908;28;20571;-67
2023/01/23 09:47:01;;;;;;;10.70;9.50;;;;;;;6.38;55.11;99391.03;8377070;28;20506;-68
2023/01/23 09:51:13;;;;;;;12.23;9.70;;;;;;;5.85;55.97;99403.16;8377169;28;20379;-67
2023/01/23 09:55:23;;;;;;;11.77;9.53;;;;;;;6.35;55.66;99409.88;8377084;28;20225;-68
2023/01/23 09:59:33;;;;;;;11.30;9.67;;;;;;;7.22;56.76;99415.41;8376656;28;20236;-68
2023/01/23 10:03:38;;;;;;;11.40;10.17;;;;;;;6.65;56.03;99403.72;8377208;28;20233;-66
2023/01/23 10:08:02;;;;;;;12.97;10.90;;;;;;;6.51;55.56;99402.97;8377199;28;20245;-66
2023/01/23 10:12:13;;;;;;;11.80;9.90;;;;;;;6.18;56.11;99402.22;8371564;28;20221;-66
2023/01/23 10:16:28;;;;;;;12.07;10.67;;;;;;;6.76;55.38;99403.69;8376887;28;20235;-66
2023/01/23 10:20:57;;;;;;;12.00;10.23;;;;;;;6.55;56.00;99409.81;8376295;28;20236;-67
2023/01/23 10:25:07;;;;;;;14.43;12.03;;;;;;;6.22;56.54;99409.06;8377494;28;20237;-67
2023/01/23 10:29:14;;;;;;;13.17;10.93;;;;;;;6.37;55.92;99402.16;8382668;28;20236;-67
2023/01/23 10:33:18;;;;;;;11.40;10.20;;;;;;;6.68;55.61;99402.00;8382776;28;20493;-67
2023/01/23 10:37:35;;;;;;;13.37;11.27;;;;;;;6.50;56.03;99367.78;8382096;28;20247;-67
2023/01/23 10:41:39;;;;;;;12.63;11.30;;;;;;;6.94;55.13;99397.53;8382283;28;20492;-67
2023/01/23 10:45:42;;;;;;;12.20;10.87;;;;;;;7.11;55.21;99397.44;8381932;28;20232;-68
2023/01/23 10:49:46;;;;;;;12.23;10.90;;;;;;;6.41;55.19;99300.94;8381535;28;20225;-69
2023/01/23 10:54:05;;;;;;;10.90;9.80;;;;;;;7.34;54.45;99397.25;8382372;28;20536;-69
2023/01/23 10:58:25;;;;;;;10.20;9.07;;;;;;;7.43;54.00;99386.00;8382229;28;20330;-68
2023/01/23 11:02:29;;;;;;;11.43;9.40;;;;;;;7.24;54.08;99375.84;8381807;28;20231;-68
2023/01/23 11:06:32;;;;;;;11.07;9.43;;;;;;;7.46;53.23;99401.44;8381825;28;20221;-68
2023/01/23 11:10:36;;;;;;;11.13;9.73;;;;;;;7.58;53.28;99397.91;8381626;28;20240;-68
2023/01/23 11:14:39;;;;;;;10.57;9.47;;;;;;;7.37;54.38;99401.53;8381106;28;20237;-69
2023/01/23 11:18:43;;;;;;;12.27;9.87;;;;;;;7.07;54.04;99398.31;8380795;28;20225;-68
2023/01/23 11:23:00;;;;;;;8.93;8.03;;;;;;;7.17;53.63;99387.06;8381173;28;20236;-68
2023/01/23 11:27:05;;;;;;;10.00;8.57;;;;;;;6.90;54.52;99393.28;8381099;28;20336;-68
2023/01/23 11:31:10;;;;;;;9.83;8.83;;;;;;;6.90;55.45;99382.13;8380615;28;20249;-68
2023/01/23 11:35:21;;;;;;;10.23;9.13;;;;;;;6.91;55.34;99373.53;8380217;28;20237;-68
2023/01/23 11:39:40;;;;;;;11.00;9.47;;;;;;;7.15;54.10;99372.50;8379313;28;20288;-68
2023/01/23 11:43:44;;;;;;;10.13;8.93;;;;;;;7.49;54.82;99367.91;8379938;28;20239;-68
2023/01/23 11:48:00;;;;;;;12.60;10.93;;;;;;;7.50;54.21;99367.06;8380338;28;20468;-68
2023/01/23 11:52:18;;;;;;;10.60;9.50;;;;;;;7.44;54.54;99338.72;8380050;28;20229;-68
2023/01/23 11:57:00;;;;;;;11.30;10.10;;;;;;;7.72;54.34;99362.50;8379489;28;20237;-68
2023/01/23 12:01:12;;;;;;;10.23;9.23;;;;;;;7.60;54.68;99357.50;8379512;28;20227;-67
2023/01/23 12:05:46;;;;;;;9.53;8.53;;;;;;;7.27;54.66;99356.06;8379804;28;20240;-68
2023/01/23 12:10:01;;;;;;;9.53;8.60;;;;;;;7.29;55.53;99313.09;8379406;28;20419;-66
2023/01/23 12:14:13;;;;;;;10.73;9.20;;;;;;;7.17;55.71;99340.69;8379447;28;20300;-67
2023/01/23 12:18:30;;;;;;;10.20;9.20;;;;;;;7.62;55.11;99341.13;8379515;28;20236;-66
2023/01/23 12:22:43;;;;;;;11.37;10.20;;;;;;;7.71;55.30;99329.00;8379275;28;20776;-66
2023/01/23 12:26:57;;;;;;;9.97;8.97;;;;;;;7.63;54.44;99314.50;8370837;28;20233;-67
2023/01/23 12:31:23;;;;;;;12.30;10.20;;;;;;;7.61;55.05;99316.22;8378922;28;20417;-67
2023/01/23 12:35:35;;;;;;;10.97;9.87;;;;;;;7.41;54.59;99313.84;8379153;28;20228;-67
2023/01/23 12:39:53;;;;;;;11.80;10.00;;;;;;;7.69;54.52;99299.81;8378980;28;20225;-68
2023/01/23 12:44:00;;;;;;;9.87;8.93;;;;;;;7.80;54.91;99285.91;8378590;28;20224;-69
2023/01/23 12:48:07;;;;;;;11.97;10.33;;;;;;;7.87;54.65;99285.84;8378438;28;20229;-69
2023/01/23 12:52:15;;;;;;;9.83;8.70;;;;;;;7.57;55.33;99287.91;8378434;28;20429;-69
2023/01/23 12:56:22;;;;;;;10.37;9.33;;;;;;;7.70;55.48;99260.28;8378181;28;20241;-68
2023/01/23 13:00:43;;;;;;;13.20;10.20;;;;;;;8.07;55.27;99268.38;8378588;28;20270;-68
2023/01/23 13:05:10;;;;;;;12.23;10.27;;;;;;;8.27;54.42;99257.78;8378392;28;20228;-68
2023/01/23 13:09:21;;;;;;;10.27;9.27;;;;;;;8.21;54.90;99252.72;8378244;28;20236;-68
2023/01/23 13:13:25;;;;;;;11.77;10.20;;;;;;;8.06;55.29;99271.84;8378021;28;20238;-68
2023/01/23 13:17:47;;;;;;;10.70;9.60;;;;;;;8.56;54.30;99277.19;8377843;28;20233;-69
2023/01/23 13:22:03;;;;;;;10.97;9.07;;;;;;;8.41;54.11;99262.75;8377772;28;20240;-68
2023/01/23 13:26:27;;;;;;;10.73;9.73;;;;;;;8.57;53.98;99268.59;8377486;28;20324;-68
2023/01/23 13:30:39;;;;;;;10.20;9.20;;;;;;;8.40;54.59;99251.56;8378483;28;20225;-68
2023/01/23 13:34:41;;;;;;;9.80;8.80;;;;;;;8.45;54.73;99241.19;8377497;28;20233;-67
2023/01/23 13:39:00;;;;;;;9.83;8.70;;;;;;;8.16;54.41;99220.97;8378018;28;20228;-68
2023/01/23 13:43:42;;;;;;;10.80;9.30;;;;;;;8.27;54.69;99255.22;8377284;28;20544;-67
2023/01/23 13:57:05;;;;;;;9.97;8.97;;;;;;;8.12;55.48;99256.28;8147413;29;20413;-68
2023/01/23 14:06:06;;;;;;;9.13;8.00;;;;;;;7.67;55.90;99240.50;7906056;30;20746;-68
2023/01/23 14:10:25;;;;;;;8.47;7.57;;;;;;;7.59;55.79;99239.75;7844905;30;20236;-68
2023/01/23 14:19:25;;;;;;;7.23;6.53;;;;;;;6.63;56.51;99160.91;7830006;30;20538;-67
2023/01/23 14:23:41;;;;;;;7.17;6.47;;;;;;;7.54;56.12;99246.69;7889239;29;20257;-68
2023/01/23 14:27:45;;;;;;;8.37;7.50;;;;;;;7.61;56.08;99243.19;7963207;29;20551;-68
2023/01/23 14:31:56;;;;;;;7.63;6.90;;;;;;;7.32;55.79;99235.78;7964262;29;20248;-68
2023/01/23 14:36:00;;;;;;;7.47;6.73;;;;;;;7.46;55.75;99241.63;8006650;29;20265;-67
2023/01/23 14:40:04;;;;;;;8.70;7.70;;;;;;;7.56;55.11;99244.97;8141598;29;20326;-67
2023/01/23 14:44:20;;;;;;;9.43;7.83;;;;;;;7.72;54.89;99241.31;8280771;28;20241;-67
2023/01/23 14:48:22;;;;;;;7.63;6.87;;;;;;;7.24;56.15;99243.59;8361084;28;20221;-67
2023/01/23 14:52:29;;;;;;;6.73;6.03;;;;;;;7.28;56.17;99231.53;8376892;28;20300;-67
2023/01/23 14:56:33;;;;;;;8.93;6.80;;;;;;;7.21;55.48;99226.44;8376960;28;20228;-67
2023/01/23 15:00:36;;;;;;;7.37;6.67;;;;;;;6.99;55.73;99246.41;8376930;28;20695;-67
2023/01/23 15:04:38;;;;;;;8.03;7.23;;;;;;;6.89;55.66;99254.22;8376886;28;20217;-68
2023/01/23 15:08:43;;;;;;;8.70;7.80;;;;;;;6.74;56.75;99250.06;8376295;28;20217;-67
2023/01/23 15:12:54;;;;;;;9.83;8.07;;;;;;;6.85;56.78;99259.44;8380270;28;20233;-68
2023/01/23 15:17:01;;;;;;;9.97;8.27;;;;;;;6.91;56.56;99258.53;8382489;28;20292;-67
2023/01/23 15:21:06;;;;;;;8.13;7.33;;;;;;;6.73;57.10;99258.66;8382638;28;20239;-67
2023/01/23 15:25:28;;;;;;;8.17;7.23;;;;;;;6.68;56.64;99219.22;8382230;28;20362;-67
2023/01/23 15:29:31;;;;;;;9.50;8.43;;;;;;;6.61;57.50;99254.47;8382198;28;20228;-67
2023/01/23 15:33:38;;;;;;;7.80;7.00;;;;;;;6.84;56.82;99259.44;8381954;28;20409;-67
2023/01/23 15:37:47;;;;;;;8.23;7.20;;;;;;;6.85;56.53;99264.56;8381384;28;20531;-67
2023/01/23 15:41:52;;;;;;;9.73;8.30;;;;;;;6.73;57.33;99268.97;8381952;28;20235;-67
2023/01/23 15:45:55;;;;;;;8.53;7.67;;;;;;;6.64;57.69;99273.34;8382016;28;20236;-67
2023/01/23 15:50:00;;;;;;;9.40;8.37;;;;;;;6.75;56.84;99272.38;8381573;28;20463;-67
2023/01/23 15:54:04;;;;;;;9.27;8.37;;;;;;;6.30;57.18;99222.94;8381325;28;20239;-67
2023/01/23 15:58:11;;;;;;;8.77;7.87;;;;;;;6.72;56.80;99265.53;8381410;28;20417;-66
2023/01/23 16:02:17;;;;;;;12.77;9.70;;;;;;;6.65;56.82;99245.84;8381098;28;20228;-67
2023/01/23 16:06:32;;;;;;;10.33;8.90;;;;;;;6.75;57.14;99268.06;8380202;28;20229;-67
2023/01/23 16:10:36;;;;;;;9.87;8.00;;;;;;;6.67;57.12;99271.59;8380983;28;20440;-68
2023/01/23 16:14:40;;;;;;;10.20;8.40;;;;;;;6.65;57.16;99254.44;8380986;28;20239;-68
2023/01/23 16:18:43;;;;;;;9.50;8.57;;;;;;;6.53;57.46;99231.38;8380374;28;20236;-68
2023/01/23 16:22:50;;;;;;;8.57;7.77;;;;;;;6.17;57.58;99238.47;8379873;28;20236;-68
2023/01/23 16:26:55;;;;;;;10.10;8.97;;;;;;;6.43;57.25;99250.31;8380480;28;20232;-68
2023/01/23 16:30:59;;;;;;;9.07;8.17;;;;;;;6.11;58.38;99251.38;8380440;28;20240;-68
2023/01/23 16:35:02;;;;;;;9.70;7.53;;;;;;;6.35;57.75;99265.78;8380251;28;20228;-68
2023/01/23 16:39:05;;;;;;;9.33;8.20;;;;;;;5.96;58.24;99238.59;8380081;28;20228;-68
2023/01/23 16:43:09;;;;;;;10.33;9.17;;;;;;;6.17;57.76;99261.63;8380101;28;20298;-68
2023/01/23 16:47:13;;;;;;;9.47;8.47;;;;;;;6.13;58.72;99283.09;8379768;28;20247;-68
2023/01/23 16:51:20;;;;;;;8.97;8.07;;;;;;;6.16;58.28;99287.34;8379906;28;20512;-68
2023/01/23 16:55:25;;;;;;;9.80;8.37;;;;;;;6.37;57.69;99300.09;8379712;28;20546;-68
2023/01/23 16:59:31;;;;;;;9.90;8.23;;;;;;;6.33;58.00;99295.81;8379512;28;20248;-68
2023/01/23 17:03:36;;;;;;;10.63;9.40;;;;;;;5.98;57.95;99304.59;8379264;28;20224;-68
2023/01/23 17:07:40;;;;;;;11.03;9.83;;;;;;;6.15;58.58;99301.94;8379315;28;20405;-68
2023/01/23 17:11:45;;;;;;;11.17;9.80;;;;;;;6.35;57.72;99301.81;8370706;28;20231;-69
2023/01/23 17:15:50;;;;;;;11.30;9.90;;;;;;;6.24;57.94;99311.31;8378960;28;20238;-67
2023/01/23 17:19:54;;;;;;;10.17;9.07;;;;;;;6.24;57.84;99311.31;8378632;28;20285;-68
2023/01/23 17:23:57;;;;;;;10.90;9.73;;;;;;;6.19;57.65;99337.06;8378120;28;20228;-68
2023/01/23 17:28:00;;;;;;;12.20;10.37;;;;;;;5.77;58.93;99313.22;8378670;28;20232;-68
2023/01/23 17:32:22;;;;;;;10.90;9.80;;;;;;;6.13;58.08;99344.81;8378604;28;20287;-68
2023/01/23 17:36:26;;;;;;;11.47;10.13;;;;;;;6.10;57.96;99355.13;8378132;28;20292;-67
2023/01/23 17:40:30;;;;;;;12.93;11.23;;;;;;;6.14;58.03;99333.66;8377756;28;20232;-67
2023/01/23 17:44:33;;;;;;;12.50;10.20;;;;;;;6.33;57.84;99342.13;8377814;28;20412;-68
2023/01/23 17:48:38;;;;;;;11.37;10.17;;;;;;;6.01;58.07;99342.28;8378294;28;20225;-68
2023/01/23 17:52:42;;;;;;;11.17;9.80;;;;;;;6.14;58.30;99354.22;8377329;28;20225;-68
2023/01/23 17:56:45;;;;;;;11.57;10.30;;;;;;;5.83;58.88;99351.75;8377891;28;20233;-68
2023/01/23 18:00:51;;;;;;;12.67;11.03;;;;;;;5.89;58.72;99348.31;8377942;28;20233;-69
2023/01/23 18:04:54;;;;;;;14.10;11.27;;;;;;;6.01;59.32;99356.00;8377480;28;20292;-69
2023/01/23 18:08:58;;;;;;;12.23;10.80;;;;;;;6.28;58.16;99361.88;8377822;28;20237;-68
2023/01/23 18:13:11;;;;;;;11.73;9.90;;;;;;;6.30;57.56;99360.16;8377863;28;20220;-69
2023/01/23 18:17:24;;;;;;;12.63;11.27;;;;;;;5.84;58.78;99343.16;8377730;28;20229;-69
2023/01/23 18:21:28;;;;;;;12.13;10.50;;;;;;;6.05;58.90;99365.44;8377614;28;20255;-69
2023/01/23 18:25:34;;;;;;;142.27;39.60;;;;;;;7.51;76.40;99376.47;8377254;28;20232;-68
2023/01/23 18:29:46;;;;;;;13.40;11.10;;;;;;;6.26;59.37;99372.19;8377598;28;20232;-68
2023/01/23 18:34:02;;;;;;;12.10;10.73;;;;;;;6.12;59.31;99376.53;8377091;28;20229;-69
2023/01/23 18:38:11;;;;;;;13.13;11.43;;;;;;;6.19;59.00;99375.66;8377436;28;20229;-68
2023/01/23 18:42:17;;;;;;;13.50;11.40;;;;;;;6.32;58.18;99379.03;8377265;28;20238;-68
2023/01/23 18:46:22;;;;;;;13.40;11.03;;;;;;;6.21;58.69;99381.66;8378820;28;20516;-68
2023/01/23 18:50:26;;;;;;;12.87;11.17;;;;;;;6.15;58.03;99391.97;8383445;28;20516;-68
2023/01/23 18:54:35;;;;;;;12.87;11.23;;;;;;;5.93;58.76;99378.28;8383398;28;20232;-68
2023/01/23 18:58:48;;;;;;;13.00;11.07;;;;;;;5.91;59.23;99382.56;8383383;28;20229;-68
2023/01/23 19:02:56;;;;;;;13.40;11.20;;;;;;;5.99;59.35;99388.56;8376451;28;20291;-69
2023/01/23 19:06:59;;;;;;;14.80;11.37;;;;;;;6.09;58.41;99386.81;8383172;28;20261;-69
2023/01/23 19:11:06;;;;;;;13.40;10.33;;;;;;;5.96;57.89;99372.28;8382831;28;20228;-69
2023/01/23 19:15:22;;;;;;;14.90;11.33;;;;;;;5.90;58.79;99383.41;8382370;28;20232;-69
2023/01/23 19:19:31;;;;;;;13.37;11.33;;;;;;;6.09;58.52;99394.53;8382355;28;20229;-67
2023/01/23 19:23:39;;;;;;;14.70;11.20;;;;;;;5.92;58.47;99389.44;8381913;28;20237;-68
2023/01/23 19:27:42;;;;;;;14.37;11.40;;;;;;;5.07;59.17;99273.97;8380884;28;20539;-68
2023/01/23 19:31:50;;;;;;;12.90;11.23;;;;;;;5.98;58.32;99394.59;8381870;28;20262;-67
2023/01/23 19:36:10;;;;;;;11.27;10.07;;;;;;;6.00;58.64;99410.88;8382108;28;20229;-68
2023/01/23 19:40:14;;;;;;;12.73;10.80;;;;;;;5.75;59.34;99414.31;8382090;28;20225;-67
2023/01/23 19:44:18;;;;;;;32.30;15.43;;;;;;;9.74;74.67;99414.78;8381924;28;20382;-67